createdAt,value
2022-08-09T00:00:05.808Z,18.18
2022-08-09T00:04:34.410Z,18.08
2022-08-09T00:08:49.935Z,18.08
2022-08-09T00:13:03.539Z,17.99
2022-08-09T00:18:09.363Z,17.95
2022-08-09T00:21:56.723Z,17.95
2022-08-09T00:26:10.859Z,17.88
2022-08-09T00:30:26.043Z,17.79
2022-08-09T00:34:38.603Z,17.73
2022-08-09T00:38:50.560Z,17.68
2022-08-09T00:44:19.389Z,17.68
2022-08-09T00:47:39.629Z,17.64
2022-08-09T00:51:56.124Z,17.58
2022-08-09T00:56:09.762Z,17.52
2022-08-09T01:00:23.665Z,17.44
2022-08-09T01:04:58.051Z,17.43
2022-08-09T01:09:58.140Z,17.40
2022-08-09T01:14:17.518Z,17.33
2022-08-09T01:18:32.445Z,17.28
2022-08-09T01:22:54.746Z,17.21
2022-08-09T01:27:08.736Z,17.15
2022-08-09T01:32:31.153Z,17.09
2022-08-09T01:36:04.564Z,17.02
2022-08-09T01:40:23.256Z,17.01
2022-08-09T01:44:42.214Z,16.94
2022-08-09T01:49:09.537Z,16.90
2022-08-09T01:53:23.861Z,16.86
2022-08-09T01:57:45.792Z,16.80
2022-08-09T02:02:01.043Z,16.78
2022-08-09T02:06:14.994Z,16.76
2022-08-09T02:10:31.044Z,16.72
2022-08-09T02:14:45.261Z,16.66
2022-08-09T02:18:59.293Z,16.63
2022-08-09T02:23:31.882Z,16.60
2022-08-09T02:28:09.668Z,16.59
2022-08-09T02:32:24.998Z,16.55
2022-08-09T02:36:44.178Z,16.50
2022-08-09T02:41:02.467Z,16.48
2022-08-09T02:45:17.914Z,16.41
2022-08-09T02:49:38.677Z,16.40
2022-08-09T02:54:01.462Z,16.34
2022-08-09T02:58:36.876Z,16.30
2022-08-09T03:03:00.458Z,16.27
2022-08-09T03:07:14.652Z,16.27
2022-08-09T03:12:06.287Z,16.20
2022-08-09T03:16:06.746Z,16.18
2022-08-09T03:20:19.845Z,16.15
2022-08-09T03:24:51.744Z,16.13
2022-08-09T03:29:13.581Z,16.07
2022-08-09T03:33:54.588Z,16.04
2022-08-09T03:38:06.797Z,15.96
2022-08-09T03:42:28.850Z,15.93
2022-08-09T03:46:40.735Z,15.90
2022-08-09T03:50:54.550Z,15.89
2022-08-09T03:55:10.587Z,15.84
2022-08-09T03:59:27.462Z,15.81
2022-08-09T04:04:02.190Z,15.83
2022-08-09T04:08:16.368Z,15.77
2022-08-09T04:12:44.551Z,15.74
2022-08-09T04:16:57.411Z,15.72
2022-08-09T04:21:10.627Z,15.74
2022-08-09T04:25:24.348Z,15.72
2022-08-09T04:29:37.169Z,15.73
2022-08-09T04:33:56.762Z,15.71
2022-08-09T04:38:11.495Z,15.72
2022-08-09T04:42:23.567Z,15.70
2022-08-09T04:46:57.078Z,15.77
2022-08-09T04:51:08.914Z,15.81
2022-08-09T04:55:21.286Z,15.85
2022-08-09T04:59:34.749Z,15.91
2022-08-09T05:03:46.383Z,16.05
2022-08-09T05:08:00.030Z,17.36
2022-08-09T05:12:12.449Z,18.97
2022-08-09T05:16:31.730Z,20.18
2022-08-09T05:20:43.754Z,21.40
2022-08-09T05:24:57.218Z,22.31
2022-08-09T05:29:24.454Z,23.31
2022-08-09T05:33:43.266Z,24.05
2022-08-09T05:37:55.902Z,24.59
2022-08-09T05:42:07.809Z,25.14
2022-08-09T05:46:20.486Z,25.42
2022-08-09T05:50:44.081Z,25.92
2022-08-09T05:55:07.177Z,26.07
2022-08-09T05:59:21.854Z,26.45
2022-08-09T06:03:34.783Z,26.63
2022-08-09T06:08:07.811Z,26.91
2022-08-09T06:12:20.689Z,27.44
2022-08-09T06:16:32.783Z,28.07
2022-08-09T06:20:54.228Z,28.61
2022-08-09T06:25:08.669Z,28.93
2022-08-09T06:29:26.994Z,29.48
2022-08-09T06:33:41.520Z,29.76
2022-08-09T06:38:05.431Z,30.25
2022-08-09T06:42:20.249Z,30.63
2022-08-09T06:46:39.871Z,30.99
2022-08-09T06:50:53.446Z,31.06
2022-08-09T06:55:10.267Z,31.13
2022-08-09T07:00:50.099Z,31.44
2022-08-09T07:04:03.744Z,31.78
2022-08-09T07:08:16.409Z,32.00
2022-08-09T07:12:38.469Z,32.33
2022-08-09T07:16:57.660Z,32.43
2022-08-09T07:21:10.337Z,32.85
2022-08-09T07:25:22.875Z,33.31
2022-08-09T07:29:38.147Z,33.63
2022-08-09T07:33:55.917Z,33.80
2022-08-09T07:38:07.633Z,34.15
2022-08-09T07:42:20.132Z,34.38
2022-08-09T07:46:44.374Z,34.39
2022-08-09T07:51:08.992Z,34.42
2022-08-09T07:55:41.351Z,34.44
2022-08-09T08:00:08.978Z,34.30
2022-08-09T08:04:32.017Z,34.47
2022-08-09T08:09:03.529Z,34.27
2022-08-09T08:13:16.191Z,34.23
2022-08-09T08:17:52.260Z,34.66
2022-08-09T08:21:59.572Z,34.63
2022-08-09T08:26:13.233Z,35.04
2022-08-09T08:30:26.586Z,34.89
2022-08-09T08:34:40.534Z,34.92
2022-08-09T08:38:53.053Z,34.93
2022-08-09T08:43:13.575Z,34.99
2022-08-09T08:47:29.897Z,35.29
2022-08-09T08:52:01.725Z,35.16
2022-08-09T08:56:27.215Z,35.30
2022-08-09T09:00:42.827Z,35.57
2022-08-09T09:05:06.084Z,35.88
2022-08-09T09:09:58.171Z,36.14
2022-08-09T09:14:00.469Z,36.67
2022-08-09T09:18:16.290Z,36.46
2022-08-09T09:22:29.462Z,36.22
2022-08-09T09:26:43.656Z,36.20
2022-08-09T09:30:57.883Z,35.85
2022-08-09T09:35:15.764Z,36.06
2022-08-09T09:39:50.412Z,36.50
2022-08-09T09:44:11.400Z,36.40
2022-08-09T09:48:24.677Z,36.02
2022-08-09T09:52:53.772Z,36.21
2022-08-09T09:58:02.471Z,36.59
2022-08-09T10:01:47.342Z,36.20
2022-08-09T10:06:04.033Z,36.28
2022-08-09T10:10:31.590Z,36.12
2022-08-09T10:14:48.274Z,36.02
2022-08-09T10:19:05.838Z,36.10
2022-08-09T10:23:21.138Z,36.43
2022-08-09T10:27:34.616Z,36.65
2022-08-09T10:36:22.327Z,36.73
2022-08-09T10:40:40.508Z,36.82
2022-08-09T10:45:04.372Z,36.78
2022-08-09T10:49:42.321Z,36.60
2022-08-09T10:54:12.498Z,36.93
2022-08-09T10:58:33.736Z,36.85
2022-08-09T11:03:15.935Z,36.75
2022-08-09T11:07:18.347Z,36.75
2022-08-09T11:11:55.326Z,36.88
2022-08-09T11:16:35.239Z,36.69
2022-08-09T11:20:49.701Z,36.75
2022-08-09T11:25:08.822Z,36.59
2022-08-09T11:30:05.199Z,36.47
2022-08-09T11:34:42.765Z,36.59
2022-08-09T11:39:03.024Z,36.14
2022-08-09T11:43:16.665Z,36.07
2022-08-09T11:47:46.080Z,35.98
2022-08-09T11:52:53.779Z,36.04
2022-08-09T11:56:42.484Z,35.61
2022-08-09T12:01:15.427Z,35.66
2022-08-09T12:05:42.284Z,35.37
2022-08-09T12:10:02.517Z,35.19
2022-08-09T12:14:28.597Z,35.07
2022-08-09T12:18:54.166Z,35.08
2022-08-09T12:23:05.989Z,34.67
2022-08-09T12:29:13.737Z,34.21
2022-08-09T12:32:05.918Z,33.91
2022-08-09T12:36:31.122Z,33.56
2022-08-09T12:40:46.236Z,33.39
2022-08-09T12:44:59.370Z,32.99
2022-08-09T12:49:12.219Z,32.73
2022-08-09T12:53:37.230Z,32.60
2022-08-09T12:57:50.234Z,32.33
2022-08-09T13:02:09.496Z,32.02
2022-08-09T13:06:34.355Z,32.05
2022-08-09T13:10:52.432Z,32.04
2022-08-09T13:15:08.954Z,31.71
2022-08-09T13:20:06.898Z,31.58
2022-08-09T13:24:42.563Z,31.30
2022-08-09T13:28:42.135Z,31.26
2022-08-09T13:32:55.702Z,31.38
2022-08-09T13:37:08.177Z,31.33
2022-08-09T13:41:59.441Z,31.30
2022-08-09T13:46:07.856Z,31.26
2022-08-09T13:50:31.087Z,31.07
2022-08-09T13:54:58.894Z,30.70
2022-08-09T13:59:11.995Z,30.71
2022-08-09T14:04:02.177Z,30.69
2022-08-09T14:08:01.372Z,30.62
2022-08-09T14:12:15.430Z,30.64
2022-08-09T14:16:29.052Z,30.68
2022-08-09T14:20:41.016Z,30.61
2022-08-09T14:24:54.037Z,30.48
2022-08-09T14:29:25.400Z,30.29
2022-08-09T14:33:40.442Z,30.21
2022-08-09T14:38:02.404Z,30.08
2022-08-09T14:42:28.998Z,30.00
2022-08-09T14:47:04.798Z,30.00
2022-08-09T14:51:21.421Z,29.99
2022-08-09T14:55:36.382Z,29.97
2022-08-09T14:59:48.998Z,29.78
2022-08-09T15:04:00.953Z,29.64
2022-08-09T15:08:13.233Z,29.52
2022-08-09T15:12:28.105Z,29.53
2022-08-09T15:16:39.784Z,29.57
2022-08-09T15:21:58.053Z,29.52
2022-08-09T15:25:39.263Z,29.31
2022-08-09T15:30:55.476Z,29.25
2022-08-09T15:34:32.958Z,29.18
2022-08-09T15:38:49.386Z,29.09
2022-08-09T15:43:01.909Z,29.04
2022-08-09T15:47:22.534Z,28.99
2022-08-09T15:52:04.085Z,28.96
2022-08-09T15:56:29.319Z,28.83
2022-08-09T16:00:39.560Z,28.87
2022-08-09T16:04:52.669Z,28.73
2022-08-09T16:09:05.882Z,28.73
2022-08-09T16:13:21.217Z,28.61
2022-08-09T16:17:50.570Z,28.56
2022-08-09T16:22:02.461Z,28.48
2022-08-09T16:26:20.185Z,28.48
2022-08-09T16:30:59.105Z,28.33
2022-08-09T16:35:11.372Z,28.25
2022-08-09T16:39:31.187Z,28.20
2022-08-09T16:44:00.436Z,28.08
2022-08-09T16:48:38.344Z,28.00
2022-08-09T16:52:45.626Z,27.89
2022-08-09T16:57:01.753Z,27.86
2022-08-09T17:01:13.427Z,27.83
2022-08-09T17:05:25.310Z,27.75
2022-08-09T17:10:01.804Z,27.68
2022-08-09T17:14:26.430Z,27.66
2022-08-09T17:18:39.987Z,27.68
2022-08-09T17:22:58.879Z,27.56
2022-08-09T17:27:15.394Z,27.47
2022-08-09T17:31:29.779Z,27.39
2022-08-09T17:35:43.781Z,27.33
2022-08-09T17:39:58.868Z,27.20
2022-08-09T17:44:42.335Z,27.17
2022-08-09T17:48:52.612Z,27.10
2022-08-09T17:53:19.822Z,27.04
2022-08-09T17:58:03.837Z,26.90
2022-08-09T18:02:12.847Z,26.80
2022-08-09T18:06:32.942Z,26.73
2022-08-09T18:10:45.945Z,26.65
2022-08-09T18:15:07.440Z,26.54
2022-08-09T18:20:56.439Z,26.46
2022-08-09T18:24:11.082Z,26.41
2022-08-09T18:30:40.356Z,26.36
2022-08-09T18:32:59.311Z,26.23
2022-08-09T18:37:48.020Z,26.15
2022-08-09T18:41:52.587Z,26.07
2022-08-09T18:46:50.727Z,25.96
2022-08-09T18:50:39.947Z,25.90
2022-08-09T18:54:55.184Z,25.76
2022-08-09T18:59:09.258Z,25.63
2022-08-09T19:03:21.396Z,25.53
2022-08-09T19:07:33.407Z,25.45
2022-08-09T19:11:47.318Z,25.35
2022-08-09T19:15:58.972Z,25.19
2022-08-09T19:20:25.063Z,25.11
2022-08-09T19:25:08.964Z,24.94
2022-08-09T19:29:18.433Z,24.77
2022-08-09T19:33:32.630Z,24.64
2022-08-09T19:37:54.232Z,24.51
2022-08-09T19:42:06.682Z,24.41
2022-08-09T19:46:34.152Z,24.28
2022-08-09T19:50:54.414Z,24.19
2022-08-09T19:55:07.107Z,24.09
2022-08-09T19:59:39.726Z,23.95
2022-08-09T20:04:12.330Z,23.86
2022-08-09T20:08:35.439Z,23.77
2022-08-09T20:12:49.715Z,23.58
2022-08-09T20:17:03.758Z,23.51
2022-08-09T20:21:16.849Z,23.35
2022-08-09T20:25:49.498Z,23.29
2022-08-09T20:30:04.583Z,23.16
2022-08-09T20:34:16.766Z,23.10
2022-08-09T20:38:46.620Z,23.00
2022-08-09T20:43:18.383Z,22.91
2022-08-09T20:47:48.533Z,22.80
2022-08-09T20:52:02.903Z,22.68
2022-08-09T20:56:20.459Z,22.59
2022-08-09T21:00:33.407Z,22.46
2022-08-09T21:05:54.685Z,22.38
2022-08-09T21:09:38.142Z,22.30
2022-08-09T21:13:59.051Z,22.20
2022-08-09T21:18:24.810Z,22.08
2022-08-09T21:22:46.806Z,21.98
2022-08-09T21:27:01.013Z,21.86
2022-08-09T21:31:48.440Z,21.83
2022-08-09T21:36:01.109Z,21.74
2022-08-09T21:40:22.011Z,21.61
2022-08-09T21:44:48.314Z,21.55
2022-08-09T21:48:59.960Z,21.39
2022-08-09T21:53:15.567Z,21.27
2022-08-09T21:57:59.572Z,21.21
2022-08-09T22:02:09.045Z,21.09
2022-08-09T22:06:31.111Z,21.04
2022-08-09T22:11:50.355Z,20.92
2022-08-09T22:15:16.978Z,20.89
2022-08-09T22:19:58.922Z,20.80
2022-08-09T22:24:02.002Z,20.73
2022-08-09T22:28:13.896Z,20.61
2022-08-09T22:32:41.452Z,20.54
2022-08-09T22:36:55.154Z,20.47
2022-08-09T22:41:06.832Z,20.42
2022-08-09T22:48:15.519Z,20.34
2022-08-09T22:49:52.001Z,20.27
2022-08-09T22:54:04.033Z,20.15
2022-08-09T22:58:31.028Z,20.10
2022-08-09T23:02:45.142Z,20.02
2022-08-09T23:07:18.249Z,19.98
2022-08-09T23:11:49.913Z,19.95
2022-08-09T23:16:03.876Z,19.94
2022-08-09T23:20:15.625Z,19.90
2022-08-09T23:24:27.279Z,19.87
2022-08-09T23:28:38.889Z,19.83
2022-08-09T23:32:50.475Z,19.74
2022-08-09T23:37:02.302Z,19.74
2022-08-09T23:41:27.880Z,19.66
2022-08-09T23:45:41.071Z,19.61
2022-08-09T23:49:52.760Z,19.55
2022-08-09T23:54:04.558Z,19.51
2022-08-09T23:58:27.706Z,19.36
